עמוד ראשי
METAR-TAF:

METAR-TAF

שדות תעופה :

Lake City, פלורידה, ארצות הברית

קו רוחב: 30-10-55N, קו אורך: 082-34-37W, גובה: 61מטר

תצפית מזג אוויר נוכחית

הדו"ח נערך לפני 26דקות, בשעה 19:55 UTC
רוח 12קשר מכיוון מזרח עם משבים עד 19קשר
טמפרטורת 31 צלסיוס
לחות 52%
לחץ 1018 hPa
ראות: 16.1קילומטר
עננים פזורים בגובה 5000רגל
עננים פזורים בגובה 7000רגל
עננים בינוניים בגובה 10000רגל

METAR: KLCQ 171955Z AUTO 10012G19KT 10SM SCT050 SCT070 BKN100 31/20 A3005 RMK AO2

זמן: 16:21 (20:21 UTC)


TAF: חסר

תצפיות ותחזיות מזג אוויר לגבי יותר מ- 4,000 שדות תעופה ברחבי העולם. דוחות METAR ו- TAF.

התחנות הזמינות מסומנות בנקודות צהובות ואדומות על גבי המפה.

העבר את העכבר לנקודה הצבעונית על מנת לראות את שם התחנה.

לאחר מכן, לחץ כדי לראות את תוכן ואת תחזיות מזג האוויר.

כדי לשנות את המפה: לחץ על הכפתורים הירוקים עם הפלוס השחור כדי להתקרב; על הכפתור הירוק עם המקף כדי להתרחק; או בחיצים הירוקים למפות סמוכות.


METAR-TAF: